createdAt,value
2022-08-27T09:35:14.581Z,0.00
2022-08-27T09:35:51.113Z,0.00
2022-08-27T09:41:15.302Z,0.00
2022-08-27T10:25:37.184Z,26.49
2022-08-27T10:26:12.194Z,26.57
2022-08-27T10:26:52.921Z,26.69
2022-08-27T10:27:37.221Z,26.99
2022-08-27T10:29:12.602Z,27.04
2022-08-27T10:29:47.384Z,27.09
2022-08-27T10:30:22.203Z,27.09
2022-08-27T10:30:57.021Z,27.02
2022-08-27T10:31:32.084Z,26.96
2022-08-27T10:34:50.360Z,26.65
2022-08-27T10:36:27.877Z,27.10
2022-08-27T10:37:05.333Z,27.21
2022-08-27T10:37:42.602Z,27.28
2022-08-27T10:38:17.363Z,27.23
2022-08-27T10:38:52.125Z,27.20
2022-08-27T10:39:26.871Z,27.11
2022-08-27T10:40:01.722Z,27.10
2022-08-27T10:40:36.591Z,27.01
2022-08-27T10:41:11.352Z,26.98
2022-08-27T10:41:46.101Z,26.92
2022-08-27T10:42:21.063Z,26.86
2022-08-27T10:42:57.614Z,26.84
2022-08-27T10:43:32.710Z,26.80
2022-08-27T10:44:07.445Z,26.77
2022-08-27T10:44:42.216Z,26.77
2022-08-27T10:45:30.727Z,26.69
2022-08-27T10:45:59.294Z,26.68
2022-08-27T10:46:34.758Z,26.65
2022-08-27T10:47:09.815Z,26.69
2022-08-27T10:47:44.642Z,26.74
2022-08-27T10:48:19.427Z,26.77
2022-08-27T10:48:54.212Z,26.77
2022-08-27T10:49:29.346Z,26.79
2022-08-27T10:50:04.107Z,26.77
2022-08-27T10:50:38.940Z,26.77
2022-08-27T10:51:13.686Z,26.77
2022-08-27T10:51:48.468Z,26.73
2022-08-27T10:52:23.267Z,26.69
2022-08-27T10:52:58.016Z,26.72
2022-08-27T10:53:32.758Z,26.73
2022-08-27T10:54:07.528Z,26.74
2022-08-27T10:54:42.348Z,26.77
2022-08-27T10:55:17.122Z,26.76
2022-08-27T10:55:51.881Z,26.79
2022-08-27T10:56:26.641Z,26.83
2022-08-27T10:57:26.133Z,26.80
2022-08-27T10:57:55.531Z,26.77
2022-08-27T10:58:20.762Z,26.74
2022-08-27T10:58:55.648Z,26.72
2022-08-27T10:59:30.475Z,26.69
2022-08-27T11:00:05.270Z,26.68
2022-08-27T11:00:40.164Z,26.68
2022-08-27T11:01:15.010Z,26.67
2022-08-27T11:01:49.811Z,26.72
2022-08-27T11:02:24.656Z,26.73
2022-08-27T11:02:59.395Z,26.77
2022-08-27T11:03:34.794Z,26.79
2022-08-27T11:04:09.556Z,26.81
2022-08-27T11:04:44.725Z,26.87
2022-08-27T11:05:19.496Z,26.94
2022-08-27T11:05:54.298Z,26.96
2022-08-27T11:06:29.067Z,26.98
2022-08-27T11:07:03.800Z,26.99
2022-08-27T11:07:38.717Z,26.98
2022-08-27T11:08:13.516Z,26.95
2022-08-27T11:08:48.357Z,26.89
2022-08-27T11:09:23.135Z,26.89
2022-08-27T11:09:57.888Z,26.87
2022-08-27T11:10:32.640Z,26.86
2022-08-27T11:11:35.118Z,26.84
2022-08-27T11:12:26.779Z,26.87
2022-08-27T11:13:01.560Z,26.83
2022-08-27T11:13:36.309Z,26.80
2022-08-27T11:14:11.140Z,26.80
2022-08-27T11:14:45.993Z,26.73
2022-08-27T11:15:20.791Z,26.69
2022-08-27T11:15:55.589Z,26.68
2022-08-27T11:16:30.535Z,26.68
2022-08-27T11:17:05.760Z,26.65
2022-08-27T11:17:40.561Z,26.65
2022-08-27T11:18:15.343Z,26.67
2022-08-27T11:18:50.133Z,26.62
2022-08-27T11:19:24.919Z,26.61
2022-08-27T11:19:59.858Z,26.61
2022-08-27T11:20:34.783Z,26.57
2022-08-27T11:21:10.527Z,26.55
2022-08-27T11:21:45.315Z,26.54
2022-08-27T11:22:26.331Z,26.52
2022-08-27T11:22:59.939Z,26.52
2022-08-27T11:23:34.731Z,26.47
2022-08-27T11:24:09.830Z,26.47
2022-08-27T11:24:44.586Z,26.44
2022-08-27T11:25:19.948Z,26.46
2022-08-27T11:25:54.770Z,26.44
2022-08-27T11:26:34.368Z,26.43
2022-08-27T11:27:09.221Z,26.43
2022-08-27T11:27:44.398Z,26.43
2022-08-27T11:28:19.158Z,26.39
2022-08-27T11:28:58.803Z,26.39
2022-08-27T11:29:33.594Z,26.36
2022-08-27T11:30:09.528Z,26.35
2022-08-27T11:30:44.311Z,26.32
2022-08-27T11:31:19.880Z,26.35
2022-08-27T11:31:54.741Z,26.32
2022-08-27T11:32:29.510Z,26.31
2022-08-27T11:33:04.343Z,26.28
2022-08-27T11:33:42.725Z,26.25
2022-08-27T11:34:18.790Z,26.24
2022-08-27T11:34:53.641Z,26.20
2022-08-27T11:35:28.406Z,26.21
2022-08-27T11:36:04.816Z,26.21
2022-08-27T11:36:39.557Z,26.17
2022-08-27T11:37:14.302Z,26.11
2022-08-27T11:37:49.254Z,26.15
2022-08-27T11:38:24.103Z,26.12
2022-08-27T11:38:58.864Z,26.15
2022-08-27T11:39:33.674Z,26.11
2022-08-27T11:40:08.512Z,26.08
2022-08-27T11:40:43.375Z,26.08
2022-08-27T11:41:18.115Z,26.11
2022-08-27T11:41:52.876Z,26.11
2022-08-27T11:42:27.637Z,26.12
2022-08-27T11:43:02.432Z,26.12
2022-08-27T11:43:37.194Z,26.15
2022-08-27T11:44:11.945Z,26.12
2022-08-27T11:44:46.780Z,26.20
2022-08-27T11:45:21.576Z,26.17
2022-08-27T11:45:56.327Z,26.17
2022-08-27T11:46:31.258Z,26.12
2022-08-27T11:47:06.483Z,26.18
2022-08-27T11:47:41.287Z,26.12
2022-08-27T11:48:16.110Z,26.11
2022-08-27T11:48:50.849Z,26.12
2022-08-27T11:49:29.740Z,26.12
2022-08-27T11:50:04.557Z,26.17
2022-08-27T11:50:39.331Z,26.18
2022-08-27T11:51:14.150Z,26.15
2022-08-27T11:51:50.783Z,26.18
2022-08-27T11:52:25.623Z,26.17
2022-08-27T11:53:00.372Z,26.18
2022-08-27T11:53:35.180Z,26.18
2022-08-27T11:54:14.812Z,26.18
2022-08-27T11:54:49.613Z,26.18
2022-08-27T11:55:24.398Z,26.18
2022-08-27T11:55:59.146Z,26.18
2022-08-27T11:56:33.882Z,26.20
2022-08-27T11:57:08.634Z,26.20
2022-08-27T11:57:43.434Z,26.22
2022-08-27T11:58:18.232Z,26.21
2022-08-27T11:58:53.757Z,26.20
2022-08-27T11:59:28.563Z,26.18
2022-08-27T12:00:03.385Z,26.20
2022-08-27T12:00:38.166Z,26.20
2022-08-27T12:01:12.930Z,26.17
2022-08-27T12:01:47.717Z,26.20
2022-08-27T12:02:22.478Z,26.21
2022-08-27T12:02:57.748Z,26.17
2022-08-27T12:03:32.611Z,26.18
2022-08-27T12:04:10.295Z,26.18
2022-08-27T12:04:45.114Z,26.18
2022-08-27T12:05:26.427Z,26.20
2022-08-27T12:06:01.627Z,26.17
2022-08-27T12:06:36.397Z,26.18
2022-08-27T12:07:11.950Z,26.11
2022-08-27T12:07:46.800Z,26.11
2022-08-27T12:08:21.572Z,26.11
2022-08-27T12:08:57.169Z,26.09
2022-08-27T12:09:31.952Z,26.09
2022-08-27T12:10:06.788Z,26.05
2022-08-27T12:10:42.411Z,26.02
2022-08-27T12:11:17.228Z,26.08
2022-08-27T12:11:55.982Z,26.09
2022-08-27T12:12:31.350Z,26.09
2022-08-27T12:13:06.141Z,26.11
2022-08-27T12:13:40.903Z,26.09
2022-08-27T12:14:15.657Z,26.08
2022-08-27T12:14:50.436Z,26.08
2022-08-27T12:15:27.589Z,26.05
2022-08-27T12:16:05.250Z,26.05
2022-08-27T12:16:40.049Z,26.04
2022-08-27T12:17:14.825Z,26.06
2022-08-27T12:17:49.622Z,26.01
2022-08-27T12:18:24.407Z,26.01
2022-08-27T12:18:59.195Z,25.99
2022-08-27T12:19:33.984Z,25.98
2022-08-27T12:20:08.849Z,25.99
2022-08-27T12:20:43.626Z,25.94
2022-08-27T12:21:18.358Z,25.98
2022-08-27T12:21:53.157Z,25.99
2022-08-27T12:22:27.896Z,25.97
2022-08-27T12:23:02.635Z,25.94
2022-08-27T12:23:37.374Z,25.98
2022-08-27T12:24:12.112Z,25.94
2022-08-27T12:24:46.887Z,25.98
2022-08-27T12:25:21.678Z,25.99
2022-08-27T12:25:56.536Z,25.97
2022-08-27T12:26:31.358Z,25.93
2022-08-27T12:27:06.126Z,25.91
2022-08-27T12:27:40.878Z,25.90
2022-08-27T12:28:15.619Z,25.86
2022-08-27T12:28:50.370Z,25.87
2022-08-27T12:29:27.822Z,25.90
2022-08-27T12:30:02.788Z,25.87
2022-08-27T12:30:37.625Z,25.87
2022-08-27T12:31:12.371Z,25.86
2022-08-27T12:31:47.226Z,25.90
2022-08-27T12:32:21.949Z,25.93
2022-08-27T12:32:56.695Z,25.99
2022-08-27T12:33:31.483Z,26.05
2022-08-27T12:34:06.279Z,26.09
2022-08-27T12:34:41.042Z,26.12
2022-08-27T12:35:17.461Z,26.11
2022-08-27T12:35:52.533Z,26.17
2022-08-27T12:36:28.076Z,26.11
2022-08-27T12:37:04.259Z,26.08
2022-08-27T12:37:42.285Z,26.09
2022-08-27T12:38:17.892Z,26.11
2022-08-27T12:38:53.012Z,26.11
2022-08-27T12:39:27.773Z,26.08
2022-08-27T12:40:03.537Z,26.08
2022-08-27T12:40:38.387Z,26.05
2022-08-27T12:41:14.976Z,26.04
2022-08-27T12:41:52.634Z,26.05
2022-08-27T12:42:27.396Z,26.05
2022-08-27T12:43:02.144Z,26.02
2022-08-27T12:43:36.885Z,26.05
2022-08-27T12:44:11.627Z,26.02
2022-08-27T12:44:46.378Z,25.98
2022-08-27T12:45:21.130Z,25.99
2022-08-27T12:45:55.865Z,25.89
2022-08-27T12:46:30.709Z,25.87
2022-08-27T12:47:05.648Z,25.87
2022-08-27T12:47:40.433Z,25.90
2022-08-27T12:48:17.567Z,25.91
2022-08-27T12:48:52.307Z,25.93
2022-08-27T12:49:39.080Z,25.93
2022-08-27T12:50:06.757Z,25.90
2022-08-27T12:50:41.507Z,25.90
2022-08-27T12:51:16.241Z,25.94
2022-08-27T12:51:50.986Z,25.98
2022-08-27T12:52:25.721Z,26.01
2022-08-27T12:53:00.469Z,25.99
2022-08-27T12:53:35.298Z,26.02
2022-08-27T12:54:10.020Z,26.02
2022-08-27T12:54:44.778Z,26.04
2022-08-27T12:55:19.530Z,26.02
2022-08-27T12:55:54.297Z,26.01
2022-08-27T12:56:29.023Z,26.02
2022-08-27T12:57:03.762Z,25.98
2022-08-27T12:57:38.481Z,25.90
2022-08-27T12:58:15.657Z,25.84
2022-08-27T12:58:50.643Z,25.84
2022-08-27T12:59:25.382Z,25.84
2022-08-27T13:00:00.141Z,25.89
2022-08-27T13:00:34.913Z,25.90
2022-08-27T13:01:09.845Z,25.90
2022-08-27T13:01:44.720Z,25.91
2022-08-27T13:02:19.484Z,25.93
2022-08-27T13:02:54.229Z,25.91
2022-08-27T13:03:28.955Z,25.91
2022-08-27T13:04:03.701Z,25.93
2022-08-27T13:04:38.434Z,25.91
2022-08-27T13:05:13.185Z,25.97
2022-08-27T13:05:47.922Z,25.94
2022-08-27T13:06:22.656Z,25.93
2022-08-27T13:06:57.386Z,25.93
2022-08-27T13:07:33.074Z,25.93
2022-08-27T13:08:11.853Z,25.91
2022-08-27T13:08:46.695Z,25.93
2022-08-27T13:09:25.177Z,25.93
2022-08-27T13:09:59.907Z,25.91
2022-08-27T13:10:34.851Z,25.91
2022-08-27T13:11:12.614Z,25.89
2022-08-27T13:11:49.207Z,25.90
2022-08-27T13:12:23.948Z,25.93
2022-08-27T13:12:58.680Z,25.91
2022-08-27T13:13:33.410Z,25.91
2022-08-27T13:14:10.408Z,25.93
2022-08-27T13:14:48.967Z,25.98
2022-08-27T13:15:24.770Z,25.97
2022-08-27T13:15:59.561Z,25.97
2022-08-27T13:16:37.072Z,25.93
2022-08-27T13:17:13.911Z,25.86
2022-08-27T13:17:49.238Z,25.89
2022-08-27T13:18:23.972Z,25.90
2022-08-27T13:19:03.575Z,25.94
2022-08-27T13:19:39.253Z,25.91
2022-08-27T13:20:14.002Z,25.89
2022-08-27T13:20:53.039Z,25.90
2022-08-27T13:21:28.167Z,25.90
2022-08-27T13:22:02.903Z,25.91
2022-08-27T13:22:37.653Z,25.91
2022-08-27T13:23:12.394Z,25.91
2022-08-27T13:23:47.313Z,25.90
2022-08-27T13:24:22.053Z,25.94
2022-08-27T13:24:56.794Z,25.91
2022-08-27T13:25:31.554Z,25.87
2022-08-27T13:26:06.334Z,25.91
2022-08-27T13:26:41.136Z,25.93
2022-08-27T13:27:15.926Z,25.94
2022-08-27T13:27:50.692Z,25.97
2022-08-27T13:28:25.647Z,25.91
2022-08-27T13:29:03.553Z,25.91
2022-08-27T13:29:38.626Z,25.90
2022-08-27T13:30:26.876Z,25.91
2022-08-27T13:30:53.018Z,25.89
2022-08-27T13:31:27.848Z,25.89
2022-08-27T13:32:02.586Z,25.89
2022-08-27T13:32:37.337Z,25.89
2022-08-27T13:33:12.079Z,25.89
2022-08-27T13:33:46.868Z,25.94
2022-08-27T13:34:21.810Z,25.93
2022-08-27T13:34:56.598Z,25.94
2022-08-27T13:35:31.348Z,26.01
2022-08-27T13:36:06.360Z,26.02
2022-08-27T13:36:41.110Z,25.99
2022-08-27T13:37:15.930Z,25.99
2022-08-27T13:37:50.692Z,25.99
2022-08-27T13:38:25.458Z,25.97
2022-08-27T13:39:00.214Z,25.97
2022-08-27T13:39:35.259Z,25.97
2022-08-27T13:40:10.075Z,25.98
2022-08-27T13:40:44.810Z,25.97
2022-08-27T13:41:19.645Z,25.99
2022-08-27T13:41:54.474Z,26.01
2022-08-27T13:42:31.611Z,26.05
2022-08-27T13:43:08.644Z,26.01
2022-08-27T13:43:47.814Z,26.01
2022-08-27T13:44:22.605Z,26.05
2022-08-27T13:44:57.515Z,26.08
2022-08-27T13:45:32.360Z,26.04
2022-08-27T13:46:08.162Z,26.05
2022-08-27T13:46:43.166Z,26.02
2022-08-27T13:47:18.080Z,25.97
2022-08-27T13:47:53.002Z,25.98
2022-08-27T13:48:27.800Z,25.94
2022-08-27T13:49:02.768Z,25.94
2022-08-27T13:49:40.172Z,25.94
2022-08-27T13:50:15.477Z,25.97
2022-08-27T13:50:50.322Z,25.98
2022-08-27T13:51:25.216Z,25.99
2022-08-27T13:52:00.146Z,25.99
2022-08-27T13:52:35.049Z,25.99
2022-08-27T13:53:11.926Z,26.01
2022-08-27T13:53:47.141Z,26.01
2022-08-27T13:54:21.909Z,26.02
2022-08-27T13:54:57.052Z,26.06
2022-08-27T13:55:33.635Z,26.08
2022-08-27T13:56:08.601Z,26.11
2022-08-27T13:56:43.594Z,26.09
2022-08-27T13:57:21.427Z,26.11
2022-08-27T13:57:56.310Z,26.11
2022-08-27T13:58:31.112Z,26.11
2022-08-27T13:59:05.930Z,26.08
2022-08-27T13:59:43.104Z,26.06
2022-08-27T14:00:18.310Z,26.09
2022-08-27T14:00:53.139Z,26.06
2022-08-27T14:01:32.828Z,26.05
2022-08-27T14:02:08.153Z,26.01
2022-08-27T14:02:54.176Z,26.02
2022-08-27T14:03:23.593Z,26.04
2022-08-27T14:03:58.374Z,26.02
2022-08-27T14:04:33.329Z,26.02
2022-08-27T14:05:08.240Z,26.02
2022-08-27T14:05:43.143Z,26.04
2022-08-27T14:06:23.211Z,26.02
2022-08-27T14:06:58.042Z,26.02
2022-08-27T14:07:32.937Z,26.01
2022-08-27T14:08:08.159Z,26.06
2022-08-27T14:08:43.108Z,26.04
2022-08-27T14:09:17.984Z,26.02
2022-08-27T14:09:54.372Z,26.06
2022-08-27T14:10:30.195Z,26.04
2022-08-27T14:11:05.439Z,26.04
2022-08-27T14:11:40.175Z,26.02
2022-08-27T14:12:14.935Z,26.05
2022-08-27T14:12:49.697Z,26.06
2022-08-27T14:13:24.466Z,26.06
2022-08-27T14:13:59.216Z,26.06
2022-08-27T14:14:33.956Z,26.05
2022-08-27T14:15:08.717Z,26.05
2022-08-27T14:15:43.532Z,26.02
2022-08-27T14:16:18.309Z,26.01
2022-08-27T14:16:53.039Z,25.99
2022-08-27T14:17:29.599Z,26.02
2022-08-27T14:18:04.590Z,26.08
2022-08-27T14:19:18.920Z,26.18
2022-08-27T14:19:53.660Z,26.22
2022-08-27T14:20:28.399Z,26.27
2022-08-27T14:21:03.149Z,26.31
2022-08-27T14:21:37.920Z,26.36
2022-08-27T14:22:12.671Z,26.40
2022-08-27T14:22:47.442Z,26.42
2022-08-27T14:23:22.189Z,26.46
2022-08-27T14:23:56.936Z,26.43
2022-08-27T14:24:33.932Z,26.46
2022-08-27T14:25:08.720Z,26.47
2022-08-27T14:25:43.454Z,26.42
2022-08-27T14:26:18.391Z,26.44
2022-08-27T14:26:53.713Z,26.46
2022-08-27T14:27:28.536Z,26.46
2022-08-27T14:28:05.299Z,26.47
2022-08-27T14:28:40.085Z,26.50
2022-08-27T14:29:14.819Z,26.52
2022-08-27T14:29:49.573Z,26.50
2022-08-27T14:30:24.599Z,26.55
2022-08-27T14:31:03.996Z,26.57
2022-08-27T14:31:38.803Z,26.57
2022-08-27T14:32:15.097Z,26.58
2022-08-27T14:32:49.835Z,26.55
2022-08-27T14:33:29.446Z,26.59
2022-08-27T14:34:04.185Z,26.58
2022-08-27T14:34:38.936Z,26.57
2022-08-27T14:35:13.702Z,26.55
2022-08-27T14:35:53.306Z,26.59
2022-08-27T14:36:28.082Z,26.59
2022-08-27T14:37:02.836Z,26.61
2022-08-27T14:37:37.711Z,26.61
2022-08-27T14:38:12.961Z,26.61
2022-08-27T14:38:47.768Z,26.61
2022-08-27T14:39:26.059Z,26.61
2022-08-27T14:40:01.934Z,26.65
2022-08-27T14:40:36.788Z,26.64
2022-08-27T14:41:11.868Z,26.64
2022-08-27T14:41:46.612Z,26.64
2022-08-27T14:42:23.010Z,26.61
2022-08-27T14:42:58.418Z,26.59
2022-08-27T14:43:33.162Z,26.59
2022-08-27T14:44:07.910Z,26.59
2022-08-27T14:44:43.649Z,26.61
2022-08-27T14:45:18.419Z,26.59
2022-08-27T14:45:53.151Z,26.62
2022-08-27T14:46:27.986Z,26.62
2022-08-27T14:47:02.803Z,26.61
2022-08-27T14:47:38.603Z,26.61
2022-08-27T14:48:18.703Z,26.62
2022-08-27T14:48:52.961Z,26.62
2022-08-27T14:49:27.702Z,26.65
2022-08-27T14:50:02.466Z,26.65
2022-08-27T14:50:37.225Z,26.67
2022-08-27T14:51:12.206Z,26.67
2022-08-27T14:51:46.975Z,26.65
2022-08-27T14:52:21.714Z,26.67
2022-08-27T14:52:56.473Z,26.69
2022-08-27T14:53:31.222Z,26.65
2022-08-27T14:54:05.961Z,26.65
2022-08-27T14:54:40.697Z,26.65
2022-08-27T14:55:15.426Z,26.68
2022-08-27T14:55:51.828Z,26.67
2022-08-27T14:56:26.950Z,26.68
2022-08-27T14:57:01.686Z,26.68
2022-08-27T14:57:36.435Z,26.67
2022-08-27T14:58:11.524Z,26.68
2022-08-27T14:58:46.376Z,26.65
2022-08-27T14:59:21.155Z,26.68
2022-08-27T14:59:55.896Z,26.67
2022-08-27T15:00:30.649Z,26.67
2022-08-27T15:01:05.409Z,26.67
2022-08-27T15:01:40.208Z,26.67
2022-08-27T15:02:14.929Z,26.67
2022-08-27T15:02:49.670Z,26.67
2022-08-27T15:03:24.410Z,26.67
2022-08-27T15:03:59.153Z,26.72
2022-08-27T15:04:33.923Z,26.73
2022-08-27T15:05:11.815Z,26.73
2022-08-27T15:05:46.920Z,26.72
2022-08-27T15:06:23.722Z,26.72
2022-08-27T15:06:58.551Z,26.73
2022-08-27T15:07:33.307Z,26.73
2022-08-27T15:08:09.178Z,26.73
2022-08-27T15:08:47.742Z,26.69
2022-08-27T15:09:22.474Z,26.67
2022-08-27T15:09:57.212Z,26.68
2022-08-27T15:10:31.974Z,26.68
2022-08-27T15:11:06.713Z,26.68
2022-08-27T15:11:41.464Z,26.67
2022-08-27T15:12:25.678Z,26.68
2022-08-27T15:12:55.821Z,26.72
2022-08-27T15:13:30.554Z,26.68
2022-08-27T15:14:05.322Z,26.69
2022-08-27T15:14:40.080Z,26.67
2022-08-27T15:15:14.818Z,26.69
2022-08-27T15:15:49.729Z,26.73
2022-08-27T15:16:27.144Z,26.69
2022-08-27T15:17:01.915Z,26.69
2022-08-27T15:17:41.528Z,26.73
2022-08-27T15:18:16.596Z,26.73
2022-08-27T15:18:56.856Z,26.74
2022-08-27T15:19:31.326Z,26.68
2022-08-27T15:20:06.061Z,26.68
2022-08-27T15:20:40.815Z,26.69
2022-08-27T15:21:17.507Z,26.68
2022-08-27T15:21:52.316Z,26.72
2022-08-27T15:22:27.063Z,26.65
2022-08-27T15:23:01.807Z,26.65
2022-08-27T15:23:36.549Z,26.67
2022-08-27T15:24:11.289Z,26.65
2022-08-27T15:24:46.032Z,26.65
2022-08-27T15:25:20.802Z,26.64
2022-08-27T15:25:55.554Z,26.62
2022-08-27T15:26:30.289Z,26.62
2022-08-27T15:27:05.032Z,26.62
2022-08-27T15:27:39.776Z,26.59
2022-08-27T15:28:14.500Z,26.57
2022-08-27T15:28:50.578Z,26.55
2022-08-27T15:29:25.351Z,26.50
2022-08-27T15:30:00.148Z,26.50
2022-08-27T15:30:34.923Z,26.47
2022-08-27T15:31:09.751Z,26.47
2022-08-27T15:31:44.482Z,26.46
2022-08-27T15:32:19.244Z,26.47
2022-08-27T15:32:57.323Z,26.46
2022-08-27T15:33:32.102Z,26.42
2022-08-27T15:34:06.867Z,26.43
2022-08-27T15:34:41.603Z,26.43
2022-08-27T15:35:16.355Z,26.40
2022-08-27T15:35:51.315Z,26.39
2022-08-27T15:36:26.043Z,26.36
2022-08-27T15:37:00.797Z,26.36
2022-08-27T15:37:35.534Z,26.35
2022-08-27T15:38:10.314Z,26.35
2022-08-27T15:38:45.021Z,26.36
2022-08-27T15:39:19.759Z,26.32
2022-08-27T15:39:54.542Z,26.35
2022-08-27T15:40:29.337Z,26.31
2022-08-27T15:41:04.056Z,26.35
2022-08-27T15:41:51.024Z,26.32
2022-08-27T15:42:18.408Z,26.32
2022-08-27T15:42:53.147Z,26.31
2022-08-27T15:43:27.889Z,26.29
2022-08-27T15:44:02.618Z,26.28
2022-08-27T15:44:37.348Z,26.29
2022-08-27T15:45:12.103Z,26.28
2022-08-27T15:45:46.849Z,26.28
2022-08-27T15:46:21.671Z,26.27
2022-08-27T15:46:56.458Z,26.28
2022-08-27T15:47:31.241Z,26.28
2022-08-27T15:48:06.021Z,26.25
2022-08-27T15:48:40.728Z,26.25
2022-08-27T15:49:15.620Z,26.24
2022-08-27T15:49:50.361Z,26.25
2022-08-27T15:50:25.113Z,26.24
2022-08-27T15:50:59.861Z,26.24
2022-08-27T15:51:34.591Z,26.24
2022-08-27T15:52:09.322Z,26.21
2022-08-27T15:52:44.069Z,26.22
2022-08-27T15:53:18.801Z,26.21
2022-08-27T15:53:53.581Z,26.25
2022-08-27T15:54:28.516Z,26.24
2022-08-27T15:55:03.302Z,26.25
2022-08-27T15:55:38.073Z,26.24
2022-08-27T15:56:12.885Z,26.24
2022-08-27T15:56:49.495Z,26.21
2022-08-27T15:57:24.243Z,26.21
2022-08-27T15:57:58.982Z,26.22
2022-08-27T15:58:33.714Z,26.22
2022-08-27T15:59:08.455Z,26.21
2022-08-27T15:59:43.195Z,26.20
2022-08-27T16:00:17.951Z,26.18
2022-08-27T16:00:54.570Z,26.21
2022-08-27T16:01:32.389Z,26.22
2022-08-27T16:02:07.145Z,26.20
2022-08-27T16:02:41.913Z,26.20
2022-08-27T16:03:16.666Z,26.20
2022-08-27T16:03:51.428Z,26.18
2022-08-27T16:04:26.169Z,26.20
2022-08-27T16:05:00.908Z,26.17
2022-08-27T16:05:35.657Z,26.17
2022-08-27T16:06:10.527Z,26.17
2022-08-27T16:06:45.684Z,26.15
2022-08-27T16:07:21.303Z,26.15
2022-08-27T16:07:56.178Z,26.15
2022-08-27T16:08:30.909Z,26.18
2022-08-27T16:09:08.587Z,26.18
2022-08-27T16:09:43.319Z,26.18
2022-08-27T16:10:18.079Z,26.17
2022-08-27T16:10:52.821Z,26.15
2022-08-27T16:11:27.613Z,26.06
2022-08-27T16:12:02.350Z,26.06
2022-08-27T16:12:37.174Z,26.01
2022-08-27T16:13:12.013Z,25.98
2022-08-27T16:13:46.780Z,25.94
2022-08-27T16:14:21.603Z,25.94
2022-08-27T16:14:56.349Z,25.98
2022-08-27T16:15:31.200Z,25.94
2022-08-27T16:16:05.989Z,25.91
2022-08-27T16:16:41.945Z,25.93
2022-08-27T16:17:16.871Z,25.93
2022-08-27T16:17:51.633Z,25.93
2022-08-27T16:18:26.380Z,25.97
2022-08-27T16:19:01.253Z,25.97
2022-08-27T16:19:36.004Z,25.94
2022-08-27T16:20:10.755Z,25.94
2022-08-27T16:20:45.513Z,25.93
2022-08-27T16:21:20.265Z,25.93
2022-08-27T16:21:55.018Z,25.93
2022-08-27T16:22:29.765Z,25.90
2022-08-27T16:23:04.531Z,25.89
2022-08-27T16:23:39.237Z,25.86
2022-08-27T16:24:14.077Z,25.91
2022-08-27T16:24:48.888Z,25.87
2022-08-27T16:25:23.649Z,25.87
2022-08-27T16:25:58.408Z,25.83
2022-08-27T16:26:33.167Z,25.84
2022-08-27T16:27:08.037Z,25.83
2022-08-27T16:27:42.805Z,25.83
2022-08-27T16:28:17.558Z,25.84
2022-08-27T16:28:52.308Z,25.86
2022-08-27T16:29:27.060Z,25.83
2022-08-27T16:30:01.937Z,25.86
2022-08-27T16:30:36.823Z,25.84
2022-08-27T16:31:11.627Z,25.83
2022-08-27T16:31:47.024Z,25.83
2022-08-27T16:32:25.847Z,25.80
2022-08-27T16:33:01.859Z,25.83
2022-08-27T16:33:37.814Z,25.82
2022-08-27T16:34:16.312Z,25.80
2022-08-27T16:34:55.758Z,25.82
2022-08-27T16:35:30.760Z,25.83
2022-08-27T16:36:05.550Z,25.87
2022-08-27T16:36:40.288Z,25.84
2022-08-27T16:37:15.074Z,25.90
2022-08-27T16:37:50.707Z,25.89
2022-08-27T16:38:25.507Z,25.87
2022-08-27T16:39:00.264Z,25.87
2022-08-27T16:39:39.978Z,25.89
2022-08-27T16:40:14.761Z,25.83
2022-08-27T16:40:49.524Z,25.83
2022-08-27T16:41:24.573Z,25.82
2022-08-27T16:41:59.350Z,25.84
2022-08-27T16:42:34.198Z,25.82
2022-08-27T16:43:08.952Z,25.83
2022-08-27T16:43:43.684Z,25.84
2022-08-27T16:44:18.440Z,25.90
2022-08-27T16:44:53.225Z,25.89
2022-08-27T16:45:27.975Z,25.86
2022-08-27T16:46:02.751Z,25.84
2022-08-27T16:46:37.569Z,25.84
2022-08-27T16:47:12.346Z,25.84
2022-08-27T16:47:47.090Z,25.83
2022-08-27T16:48:21.827Z,25.84
2022-08-27T16:49:01.260Z,25.82
2022-08-27T16:49:37.164Z,25.83
2022-08-27T16:50:11.866Z,25.80
2022-08-27T16:50:51.500Z,25.75
2022-08-27T16:51:26.242Z,25.79
2022-08-27T16:52:00.979Z,25.77
2022-08-27T16:52:35.758Z,25.79
2022-08-27T16:53:10.540Z,25.79
2022-08-27T16:53:45.362Z,25.79
2022-08-27T16:54:20.127Z,25.79
2022-08-27T16:54:54.897Z,25.79
2022-08-27T16:55:29.653Z,25.79
2022-08-27T16:56:04.580Z,25.77
2022-08-27T16:56:39.310Z,25.79
2022-08-27T16:57:14.078Z,25.82
2022-08-27T16:57:48.829Z,25.83
2022-08-27T16:58:23.591Z,25.84
2022-08-27T16:58:58.353Z,25.86
2022-08-27T16:59:33.095Z,25.86
2022-08-27T17:00:07.857Z,25.82
2022-08-27T17:00:42.702Z,25.82
2022-08-27T17:01:17.464Z,25.80
2022-08-27T17:01:52.272Z,25.82
2022-08-27T17:02:30.328Z,25.82
2022-08-27T17:03:06.705Z,25.83
2022-08-27T17:04:06.796Z,25.87
2022-08-27T17:04:30.253Z,25.89
2022-08-27T17:05:17.406Z,25.84
2022-08-27T17:05:40.898Z,25.82
2022-08-27T17:06:15.875Z,25.83
2022-08-27T17:06:52.897Z,25.84
2022-08-27T17:07:27.726Z,25.83
2022-08-27T17:08:02.915Z,25.82
2022-08-27T17:08:45.781Z,25.82
2022-08-27T17:09:17.388Z,25.80
2022-08-27T17:09:52.281Z,25.82
2022-08-27T17:10:29.373Z,25.82
2022-08-27T17:11:04.145Z,25.79
2022-08-27T17:11:38.908Z,25.80
2022-08-27T17:12:13.659Z,25.83
2022-08-27T17:12:50.448Z,25.83
2022-08-27T17:13:28.324Z,25.84
2022-08-27T17:14:03.351Z,25.83
2022-08-27T17:14:38.185Z,25.82
2022-08-27T17:15:13.038Z,25.82
2022-08-27T17:15:52.074Z,25.82
2022-08-27T17:16:27.665Z,25.80
2022-08-27T17:17:02.472Z,25.82
2022-08-27T17:17:37.262Z,25.80
2022-08-27T17:18:12.139Z,25.80
2022-08-27T17:18:47.589Z,25.79
2022-08-27T17:19:22.550Z,25.77
2022-08-27T17:19:57.449Z,25.83
2022-08-27T17:20:32.256Z,25.82
2022-08-27T17:21:07.041Z,25.83
2022-08-27T17:21:41.836Z,25.87
2022-08-27T17:22:20.142Z,25.83
2022-08-27T17:22:54.974Z,25.83
2022-08-27T17:23:30.027Z,25.83
2022-08-27T17:24:04.812Z,25.82
2022-08-27T17:24:44.427Z,25.80
2022-08-27T17:25:19.923Z,25.80
2022-08-27T17:25:54.725Z,25.79
2022-08-27T17:26:30.866Z,25.75
2022-08-27T17:27:05.615Z,25.79
2022-08-27T17:27:40.395Z,25.77
2022-08-27T17:28:15.558Z,25.77
2022-08-27T17:28:50.357Z,25.75
2022-08-27T17:29:25.116Z,25.74
2022-08-27T17:29:59.907Z,25.74
2022-08-27T17:30:34.745Z,25.74
2022-08-27T17:31:09.550Z,25.72
2022-08-27T17:31:44.316Z,25.74
2022-08-27T17:32:19.069Z,25.74
2022-08-27T17:32:53.818Z,25.75
2022-08-27T17:33:28.609Z,25.75
2022-08-27T17:34:03.394Z,25.77
2022-08-27T17:34:38.156Z,25.75
2022-08-27T17:35:12.954Z,25.75
2022-08-27T17:35:47.772Z,25.75
2022-08-27T17:36:22.569Z,25.77
2022-08-27T17:37:01.600Z,25.79
2022-08-27T17:37:36.438Z,25.79
2022-08-27T17:38:11.357Z,25.79
2022-08-27T17:38:46.167Z,25.74
2022-08-27T17:39:20.962Z,25.75
2022-08-27T17:39:55.779Z,25.83
2022-08-27T17:40:30.647Z,25.82
2022-08-27T17:41:05.440Z,25.82
2022-08-27T17:41:40.203Z,25.82
2022-08-27T17:42:15.043Z,25.79
2022-08-27T17:42:49.875Z,25.82
2022-08-27T17:43:24.701Z,25.82
2022-08-27T17:43:59.533Z,25.79
2022-08-27T17:44:34.261Z,25.77
2022-08-27T17:45:09.044Z,25.79
2022-08-27T17:45:43.970Z,25.80
2022-08-27T17:46:18.808Z,25.77
2022-08-27T17:46:53.853Z,25.79
2022-08-27T17:47:28.602Z,25.79
2022-08-27T17:48:06.044Z,25.80
2022-08-27T17:48:43.172Z,25.83
2022-08-27T17:49:17.945Z,25.83
2022-08-27T17:49:52.704Z,25.84
2022-08-27T17:50:27.585Z,25.83
2022-08-27T17:51:02.410Z,25.82
2022-08-27T17:51:37.191Z,25.83
2022-08-27T17:52:11.936Z,25.83
2022-08-27T17:52:46.706Z,25.79
2022-08-27T17:53:21.476Z,25.80
2022-08-27T17:54:00.648Z,25.80
2022-08-27T17:54:35.882Z,25.80
2022-08-27T17:55:10.662Z,25.79
2022-08-27T17:55:45.528Z,25.77
2022-08-27T17:56:20.287Z,25.80
2022-08-27T17:56:55.043Z,25.80
2022-08-27T17:57:29.797Z,25.80
2022-08-27T17:58:09.402Z,25.82
2022-08-27T17:58:44.211Z,25.83
2022-08-27T17:59:20.400Z,25.80
2022-08-27T17:59:55.212Z,25.80
2022-08-27T18:00:29.986Z,25.77
2022-08-27T18:01:05.045Z,25.79
2022-08-27T18:01:44.597Z,25.79
2022-08-27T18:02:19.478Z,25.77
2022-08-27T18:02:55.432Z,25.75
2022-08-27T18:03:31.328Z,25.83
2022-08-27T18:04:11.148Z,25.82
2022-08-27T18:04:45.980Z,25.82